createdAt,value
2022-09-12T00:02:07.495Z,65.08
2022-09-12T00:04:34.150Z,66.20
2022-09-12T00:07:00.801Z,68.22
2022-09-12T00:09:27.503Z,67.57
2022-09-12T00:11:54.265Z,64.37
2022-09-12T00:14:20.929Z,61.23
2022-09-12T00:16:47.688Z,67.40
2022-09-12T00:19:14.523Z,71.21
2022-09-12T00:21:42.145Z,71.35
2022-09-12T00:24:10.545Z,68.21
2022-09-12T00:26:37.262Z,67.37
2022-09-12T00:29:04.466Z,64.66
2022-09-12T00:31:31.476Z,61.85
2022-09-12T00:34:00.825Z,58.46
2022-09-12T00:36:29.284Z,58.16
2022-09-12T00:38:56.397Z,60.93
2022-09-12T00:41:34.826Z,64.56
2022-09-12T00:44:21.021Z,62.36
2022-09-12T00:46:53.999Z,60.62
2022-09-12T00:50:10.911Z,56.79
2022-09-12T00:52:42.325Z,54.71
2022-09-12T00:55:49.416Z,55.51
2022-09-12T00:58:28.076Z,54.33
2022-09-12T01:00:55.494Z,54.34
2022-09-12T01:03:24.228Z,56.08
2022-09-12T01:05:57.180Z,55.39
2022-09-12T01:08:25.898Z,55.68
2022-09-12T01:10:52.786Z,55.91
2022-09-12T01:13:19.799Z,56.59
2022-09-12T01:15:46.611Z,57.74
2022-09-12T01:18:23.151Z,57.49
2022-09-12T01:21:07.867Z,56.80
2022-09-12T01:23:52.544Z,56.49
2022-09-12T01:26:46.486Z,56.61
2022-09-12T01:29:37.366Z,58.19
2022-09-12T01:32:25.566Z,59.19
2022-09-12T01:35:05.810Z,60.79
2022-09-12T01:38:10.309Z,59.68
2022-09-12T01:41:13.779Z,61.94
2022-09-12T01:44:52.175Z,60.24
2022-09-12T01:47:39.719Z,61.76
2022-09-12T01:50:33.804Z,68.81
2022-09-12T01:53:24.586Z,65.83
2022-09-12T01:56:22.325Z,68.99
2022-09-12T01:59:17.227Z,64.07
2022-09-12T02:02:03.415Z,62.88
2022-09-12T02:04:53.498Z,63.73
2022-09-12T02:07:27.370Z,59.88
2022-09-12T02:10:29.172Z,59.21
2022-09-12T02:13:03.169Z,58.84
2022-09-12T02:15:43.177Z,58.04
2022-09-12T02:18:14.515Z,59.75
2022-09-12T02:20:48.244Z,58.79
2022-09-12T02:23:23.427Z,59.40
2022-09-12T02:26:03.392Z,57.36
2022-09-12T02:28:35.926Z,56.32
2022-09-12T02:31:33.644Z,54.93
2022-09-12T02:34:33.142Z,54.37
2022-09-12T02:37:26.169Z,54.32
2022-09-12T02:39:57.398Z,55.01
2022-09-12T02:42:25.219Z,55.24
2022-09-12T02:44:54.931Z,55.38
2022-09-12T02:47:44.128Z,55.17
2022-09-12T02:50:11.124Z,56.01
2022-09-12T02:52:38.665Z,55.33
2022-09-12T02:55:06.607Z,54.88
2022-09-12T02:57:33.679Z,60.44
2022-09-12T03:00:02.069Z,60.81
2022-09-12T03:03:03.549Z,58.89
2022-09-12T03:05:47.187Z,59.07
2022-09-12T03:08:43.327Z,57.51
2022-09-12T03:11:40.912Z,56.39
2022-09-12T03:14:41.581Z,55.40
2022-09-12T03:17:42.861Z,54.90
2022-09-12T03:20:25.205Z,54.53
2022-09-12T03:23:02.924Z,54.37
2022-09-12T03:25:46.969Z,54.17
2022-09-12T03:28:16.546Z,53.66
2022-09-12T03:30:47.329Z,53.86
2022-09-12T03:33:17.881Z,54.62
2022-09-12T03:35:46.308Z,53.99
2022-09-12T03:38:13.479Z,53.92
2022-09-12T03:40:40.170Z,53.14
2022-09-12T03:43:09.141Z,52.91
2022-09-12T03:45:37.371Z,53.36
2022-09-12T03:48:06.215Z,53.13
2022-09-12T03:50:33.787Z,54.48
2022-09-12T03:53:00.558Z,53.34
2022-09-12T03:55:27.461Z,53.04
2022-09-12T03:57:54.905Z,53.31
2022-09-12T04:00:21.904Z,52.85
2022-09-12T04:02:48.714Z,52.45
2022-09-12T04:05:15.721Z,52.64
2022-09-12T04:07:42.383Z,52.55
2022-09-12T04:10:09.754Z,52.56
2022-09-12T04:12:36.618Z,52.65
2022-09-12T04:15:03.703Z,52.13
2022-09-12T04:17:30.313Z,52.13
2022-09-12T04:19:56.942Z,52.25
2022-09-12T04:22:23.809Z,52.37
2022-09-12T04:24:50.514Z,51.99
2022-09-12T04:27:17.146Z,52.09
2022-09-12T04:29:43.796Z,51.82
2022-09-12T04:32:10.650Z,51.91
2022-09-12T04:34:37.682Z,52.17
2022-09-12T04:37:04.606Z,51.83
2022-09-12T04:39:31.260Z,51.63
2022-09-12T04:41:57.880Z,51.73
2022-09-12T04:44:24.589Z,51.80
2022-09-12T04:46:51.469Z,51.68
2022-09-12T04:49:19.303Z,52.29
2022-09-12T04:51:46.660Z,52.43
2022-09-12T04:54:19.604Z,52.43
2022-09-12T04:56:49.410Z,52.57
2022-09-12T04:59:18.271Z,52.22
2022-09-12T05:01:45.071Z,51.84
2022-09-12T05:04:13.248Z,51.58
2022-09-12T05:06:41.615Z,51.91
2022-09-12T05:09:12.251Z,51.96
2022-09-12T05:14:29.797Z,51.63
2022-09-12T05:16:59.943Z,51.63
2022-09-12T05:19:28.231Z,51.73
2022-09-12T05:21:54.837Z,51.63
2022-09-12T05:24:21.649Z,51.50
2022-09-12T05:26:48.314Z,51.76
2022-09-12T05:29:14.998Z,51.95
2022-09-12T05:31:41.856Z,51.55
2022-09-12T05:34:10.038Z,51.60
2022-09-12T05:36:37.442Z,51.50
2022-09-12T05:39:04.855Z,51.08
2022-09-12T05:41:33.755Z,51.23
2022-09-12T05:44:04.519Z,50.82
2022-09-12T05:46:43.035Z,50.77
2022-09-12T05:49:13.163Z,50.54
2022-09-12T05:51:44.881Z,50.36
2022-09-12T05:54:15.426Z,50.43
2022-09-12T05:56:44.152Z,50.45
2022-09-12T05:59:20.773Z,50.41
2022-09-12T06:01:48.549Z,50.07
2022-09-12T06:04:15.895Z,50.82
2022-09-12T06:06:45.480Z,50.14
2022-09-12T06:09:15.142Z,49.37
2022-09-12T06:11:43.029Z,49.43
2022-09-12T06:14:12.164Z,49.03
2022-09-12T06:16:39.473Z,48.67
2022-09-12T06:19:19.334Z,48.72
2022-09-12T06:21:49.089Z,48.54
2022-09-12T06:24:17.645Z,48.63
2022-09-12T06:26:44.893Z,48.49
2022-09-12T06:29:12.179Z,49.00
2022-09-12T06:31:41.363Z,51.26
2022-09-12T06:34:12.240Z,50.08
2022-09-12T06:36:42.826Z,50.96
2022-09-12T06:39:19.138Z,53.95
2022-09-12T06:41:48.261Z,53.97
2022-09-12T06:44:21.647Z,54.33
2022-09-12T06:46:48.993Z,53.64
2022-09-12T06:49:15.813Z,53.68
2022-09-12T06:51:43.074Z,53.44
2022-09-12T06:54:12.947Z,52.38
2022-09-12T06:56:39.648Z,53.80
2022-09-12T06:59:06.762Z,52.51
2022-09-12T07:01:33.590Z,53.14
2022-09-12T07:04:03.052Z,53.39
2022-09-12T07:06:35.719Z,52.90
2022-09-12T07:09:05.785Z,51.89
2022-09-12T07:11:36.546Z,53.04
2022-09-12T07:14:06.486Z,51.97
2022-09-12T07:16:36.137Z,50.88
2022-09-12T07:19:04.781Z,51.99
2022-09-12T07:21:31.604Z,50.92
2022-09-12T07:23:58.774Z,49.88
2022-09-12T07:26:28.216Z,50.88
2022-09-12T07:29:08.299Z,50.57
2022-09-12T07:31:44.145Z,49.36
2022-09-12T07:34:11.152Z,47.79
2022-09-12T07:36:38.013Z,47.39
2022-09-12T07:39:04.733Z,46.23
2022-09-12T07:41:33.884Z,45.05
2022-09-12T07:44:02.990Z,44.89
2022-09-12T07:46:31.813Z,46.27
2022-09-12T07:49:00.851Z,45.45
2022-09-12T07:51:30.512Z,44.83
2022-09-12T07:53:58.312Z,43.08
2022-09-12T07:56:30.125Z,42.59
2022-09-12T07:58:58.853Z,41.87
2022-09-12T08:01:26.008Z,41.81
2022-09-12T08:03:59.100Z,42.07
2022-09-12T08:06:28.186Z,41.76
2022-09-12T08:08:57.432Z,41.65
2022-09-12T08:11:26.019Z,40.41
2022-09-12T08:13:56.135Z,39.37
2022-09-12T08:16:31.153Z,41.51
2022-09-12T08:18:59.767Z,41.94
2022-09-12T08:21:30.079Z,40.78
2022-09-12T08:24:03.936Z,39.19
2022-09-12T08:26:32.708Z,38.50
2022-09-12T08:29:00.279Z,37.74
2022-09-12T08:31:28.102Z,37.31
2022-09-12T08:33:58.601Z,38.00
2022-09-12T08:36:28.062Z,40.55
2022-09-12T08:39:00.798Z,42.27
2022-09-12T08:41:35.234Z,43.37
2022-09-12T08:44:22.726Z,45.13
2022-09-12T08:47:10.935Z,44.49
2022-09-12T08:50:10.801Z,42.19
2022-09-12T08:53:03.532Z,42.86
2022-09-12T08:55:53.444Z,40.72
2022-09-12T08:58:22.825Z,41.16
2022-09-12T09:01:12.151Z,40.10
2022-09-12T09:03:57.699Z,40.35
2022-09-12T09:06:59.222Z,38.33
2022-09-12T09:09:47.289Z,37.50
2022-09-12T09:12:54.644Z,39.62
2022-09-12T09:15:56.255Z,36.68
2022-09-12T09:18:33.421Z,34.98
2022-09-12T09:21:02.028Z,34.21
2022-09-12T09:23:42.715Z,35.50
2022-09-12T09:26:17.940Z,33.82
2022-09-12T09:28:54.013Z,37.74
2022-09-12T09:31:30.848Z,43.50
2022-09-12T09:33:57.525Z,38.68
2022-09-12T09:36:50.312Z,37.38
2022-09-12T09:39:36.679Z,37.32
2022-09-12T09:42:41.146Z,40.38
2022-09-12T09:45:19.505Z,36.79
2022-09-12T09:48:15.431Z,35.47
2022-09-12T09:50:42.920Z,39.51
2022-09-12T09:53:40.587Z,44.52
2022-09-12T09:56:27.065Z,41.55
2022-09-12T09:58:54.080Z,37.88
2022-09-12T10:01:21.144Z,38.20
2022-09-12T10:03:56.368Z,35.10
2022-09-12T10:06:34.244Z,33.73
2022-09-12T10:09:14.764Z,33.46
2022-09-12T10:11:45.695Z,33.38
2022-09-12T10:14:31.638Z,33.83
2022-09-12T10:16:59.503Z,33.96
2022-09-12T10:20:10.531Z,33.74
2022-09-12T10:22:39.559Z,33.91
2022-09-12T10:25:13.356Z,35.16
2022-09-12T10:27:42.192Z,33.11
2022-09-12T10:30:19.708Z,32.70
2022-09-12T10:32:53.058Z,33.95
2022-09-12T10:35:29.448Z,33.31
2022-09-12T10:38:02.385Z,33.42
2022-09-12T10:40:42.050Z,34.14
2022-09-12T10:43:33.496Z,33.95
2022-09-12T10:46:21.217Z,34.84
2022-09-12T10:48:51.502Z,34.05
2022-09-12T10:51:24.375Z,33.32
2022-09-12T10:53:54.320Z,34.17
2022-09-12T10:56:23.243Z,34.74
2022-09-12T10:59:16.853Z,32.33
2022-09-12T11:02:14.989Z,32.37
2022-09-12T11:05:08.038Z,34.81
2022-09-12T11:07:53.196Z,34.49
2022-09-12T11:10:57.145Z,33.85
2022-09-12T11:14:28.334Z,33.15
2022-09-12T11:17:30.079Z,30.91
2022-09-12T11:20:31.168Z,31.66
2022-09-12T11:23:13.625Z,32.23
2022-09-12T11:26:10.613Z,33.86
2022-09-12T11:29:05.619Z,32.43
2022-09-12T11:31:56.300Z,30.57
2022-09-12T11:35:07.002Z,30.92
2022-09-12T11:38:08.256Z,33.12
2022-09-12T11:41:15.448Z,30.77
2022-09-12T11:43:56.932Z,28.69
2022-09-12T11:46:39.535Z,27.98
2022-09-12T11:49:09.174Z,28.60
2022-09-12T11:52:03.784Z,28.42
2022-09-12T11:55:00.416Z,28.51
2022-09-12T11:57:47.980Z,26.80
2022-09-12T12:00:21.650Z,26.82
2022-09-12T12:02:57.659Z,25.90
2022-09-12T12:06:01.350Z,24.32
2022-09-12T12:08:31.940Z,24.80
2022-09-12T12:11:04.101Z,24.00
2022-09-12T12:13:33.727Z,24.16
2022-09-12T12:16:19.777Z,24.14
2022-09-12T12:18:53.508Z,23.77
2022-09-12T12:21:29.508Z,24.97
2022-09-12T12:24:08.148Z,25.49
2022-09-12T12:26:40.674Z,23.77
2022-09-12T12:29:32.858Z,24.67
2022-09-12T12:31:59.410Z,24.53
2022-09-12T12:34:44.384Z,24.79
2022-09-12T12:37:20.158Z,24.16
2022-09-12T12:39:53.910Z,25.02
2022-09-12T12:42:35.669Z,24.33
2022-09-12T12:45:08.408Z,24.68
2022-09-12T12:47:37.681Z,24.31
2022-09-12T12:50:16.226Z,25.89
2022-09-12T12:53:21.653Z,26.72
2022-09-12T12:55:52.504Z,27.75
2022-09-12T12:58:41.116Z,26.87
2022-09-12T13:01:21.176Z,28.88
2022-09-12T13:04:05.420Z,28.70
2022-09-12T13:06:41.000Z,28.14
2022-09-12T13:09:32.521Z,27.02
2022-09-12T13:12:09.879Z,26.08
2022-09-12T13:14:59.497Z,27.28
2022-09-12T13:17:38.161Z,27.72
2022-09-12T13:20:29.639Z,26.28
2022-09-12T13:22:57.681Z,26.10
2022-09-12T13:25:35.363Z,24.87
2022-09-12T13:28:11.325Z,25.86
2022-09-12T13:31:19.735Z,24.92
2022-09-12T13:33:59.853Z,24.38
2022-09-12T13:36:52.164Z,23.63
2022-09-12T13:39:28.377Z,25.63
2022-09-12T13:42:23.381Z,25.04
2022-09-12T13:45:12.481Z,26.98
2022-09-12T13:47:58.822Z,26.59
2022-09-12T13:50:51.675Z,25.92
2022-09-12T13:53:23.340Z,26.10
2022-09-12T13:55:59.575Z,25.72
2022-09-12T13:58:29.986Z,25.82
2022-09-12T14:01:16.098Z,26.44
2022-09-12T14:04:14.967Z,25.23
2022-09-12T14:06:53.423Z,25.31
2022-09-12T14:09:41.741Z,25.40
2022-09-12T14:12:23.223Z,26.01
2022-09-12T14:14:52.242Z,25.70
2022-09-12T14:17:29.792Z,25.73
2022-09-12T14:19:59.280Z,25.86
2022-09-12T14:22:27.897Z,26.00
2022-09-12T14:24:55.861Z,25.43
2022-09-12T14:27:37.273Z,26.99
2022-09-12T14:30:19.683Z,27.53
2022-09-12T14:33:12.696Z,27.10
2022-09-12T14:35:45.661Z,27.37
2022-09-12T14:38:15.077Z,25.77
2022-09-12T14:41:07.742Z,25.66
2022-09-12T14:43:38.797Z,25.42
2022-09-12T14:46:23.825Z,26.00
2022-09-12T14:49:12.714Z,25.90
2022-09-12T14:51:51.116Z,26.21
2022-09-12T14:54:44.531Z,26.42
2022-09-12T14:57:36.640Z,27.82
2022-09-12T15:00:14.213Z,27.42
2022-09-12T15:02:43.065Z,27.30
2022-09-12T15:05:12.352Z,27.91
2022-09-12T15:07:42.165Z,27.30
2022-09-12T15:10:36.754Z,28.07
2022-09-12T15:13:26.039Z,28.24
2022-09-12T15:15:54.329Z,27.92
2022-09-12T15:18:23.759Z,28.37
2022-09-12T15:21:00.840Z,27.77
2022-09-12T15:23:31.026Z,27.95
2022-09-12T15:25:57.735Z,29.22
2022-09-12T15:28:24.906Z,28.67
2022-09-12T15:30:55.651Z,28.95
2022-09-12T15:33:24.846Z,28.74
2022-09-12T15:35:52.994Z,28.74
2022-09-12T15:38:24.267Z,29.23
2022-09-12T15:40:53.955Z,29.30
2022-09-12T15:43:23.070Z,29.73
2022-09-12T15:45:51.714Z,29.98
2022-09-12T15:48:20.558Z,29.70
2022-09-12T15:50:47.384Z,29.35
2022-09-12T15:53:16.750Z,29.30
2022-09-12T15:55:43.877Z,30.00
2022-09-12T15:58:10.882Z,29.18
2022-09-12T16:00:37.730Z,29.67
2022-09-12T16:03:04.791Z,29.32
2022-09-12T16:05:32.249Z,30.04
2022-09-12T16:07:58.941Z,29.85
2022-09-12T16:10:29.952Z,29.72
2022-09-12T16:12:57.144Z,29.84
2022-09-12T16:15:26.172Z,30.62
2022-09-12T16:17:56.239Z,30.11
2022-09-12T16:20:23.561Z,30.86
2022-09-12T16:22:50.285Z,30.61
2022-09-12T16:25:17.424Z,31.60
2022-09-12T16:27:44.801Z,31.23
2022-09-12T16:30:11.936Z,30.84
2022-09-12T16:32:38.721Z,29.54
2022-09-12T16:35:06.497Z,28.89
2022-09-12T16:37:34.576Z,28.26
2022-09-12T16:40:03.432Z,28.25
2022-09-12T16:42:30.387Z,27.73
2022-09-12T16:44:57.074Z,26.68
2022-09-12T16:47:24.625Z,27.14
2022-09-12T16:49:51.378Z,26.78
2022-09-12T16:52:19.050Z,27.63
2022-09-12T16:54:45.836Z,27.74
2022-09-12T16:57:12.847Z,28.94
2022-09-12T16:59:39.587Z,29.22
2022-09-12T17:02:06.573Z,30.25
2022-09-12T17:04:33.236Z,31.09
2022-09-12T17:07:00.030Z,32.32
2022-09-12T17:09:28.159Z,32.62
2022-09-12T17:11:55.683Z,32.64
2022-09-12T17:14:22.923Z,33.25
2022-09-12T17:16:52.037Z,33.48
2022-09-12T17:19:29.721Z,33.66
2022-09-12T17:21:57.703Z,35.21
2022-09-12T17:24:24.360Z,35.11
2022-09-12T17:26:52.369Z,36.07
2022-09-12T17:29:19.501Z,36.39
2022-09-12T17:31:46.548Z,36.35
2022-09-12T17:34:17.509Z,37.93
2022-09-12T17:36:46.191Z,37.80
2022-09-12T17:39:14.299Z,37.38
2022-09-12T17:41:42.785Z,37.15
2022-09-12T17:44:12.482Z,37.79
2022-09-12T17:46:39.785Z,38.16
2022-09-12T17:49:11.830Z,38.70
2022-09-12T17:51:39.460Z,38.20
2022-09-12T17:54:11.812Z,39.25
2022-09-12T17:56:39.126Z,38.65
2022-09-12T17:59:08.715Z,38.83
2022-09-12T18:01:54.124Z,39.98
2022-09-12T18:04:20.898Z,40.14
2022-09-12T18:06:48.751Z,39.96
2022-09-12T18:09:21.967Z,39.55
2022-09-12T18:11:49.941Z,39.57
2022-09-12T18:14:17.699Z,41.07
2022-09-12T18:16:45.233Z,40.84
2022-09-12T18:19:12.178Z,41.15
2022-09-12T18:21:38.897Z,41.20
2022-09-12T18:24:06.410Z,43.52
2022-09-12T18:26:34.480Z,42.06
2022-09-12T18:29:01.184Z,42.65
2022-09-12T18:31:30.306Z,43.34
2022-09-12T18:33:59.775Z,42.85
2022-09-12T18:36:27.441Z,44.07
2022-09-12T18:38:54.954Z,42.52
2022-09-12T18:41:24.756Z,43.67
2022-09-12T18:43:59.994Z,44.00
2022-09-12T18:46:29.794Z,44.63
2022-09-12T18:48:57.915Z,43.81
2022-09-12T18:51:31.516Z,43.41
2022-09-12T18:54:11.204Z,43.60
2022-09-12T18:56:39.148Z,43.62
2022-09-12T18:59:07.193Z,44.22
2022-09-12T19:01:37.819Z,44.25
2022-09-12T19:04:07.508Z,44.04
2022-09-12T19:06:41.034Z,43.62
2022-09-12T19:09:09.583Z,44.68
2022-09-12T19:11:38.873Z,45.67
2022-09-12T19:14:06.616Z,44.96
2022-09-12T19:16:33.689Z,44.70
2022-09-12T19:19:00.589Z,45.15
2022-09-12T19:21:33.193Z,45.30
2022-09-12T19:24:06.927Z,47.44
2022-09-12T19:26:34.316Z,46.76
2022-09-12T19:29:02.814Z,46.65
2022-09-12T19:31:30.367Z,46.60
2022-09-12T19:34:05.780Z,46.43
2022-09-12T19:36:44.924Z,46.75
2022-09-12T19:39:11.929Z,45.87
2022-09-12T19:41:38.684Z,46.78
2022-09-12T19:44:05.611Z,46.83
2022-09-12T19:46:32.551Z,45.70
2022-09-12T19:48:59.355Z,45.44
2022-09-12T19:51:26.367Z,45.27
2022-09-12T19:53:53.388Z,45.41
2022-09-12T19:56:20.938Z,45.34
2022-09-12T19:58:55.032Z,45.32
2022-09-12T20:01:28.364Z,45.60
2022-09-12T20:03:56.354Z,47.69
2022-09-12T20:06:23.077Z,45.83
2022-09-12T20:08:50.054Z,45.76
2022-09-12T20:11:19.512Z,46.36
2022-09-12T20:13:46.871Z,46.91
2022-09-12T20:16:28.962Z,47.85
2022-09-12T20:19:06.898Z,47.89
2022-09-12T20:21:36.024Z,46.95
2022-09-12T20:24:16.036Z,46.28
2022-09-12T20:26:43.136Z,46.39
2022-09-12T20:29:10.498Z,48.13
2022-09-12T20:31:40.076Z,47.23
2022-09-12T20:34:07.403Z,46.48
2022-09-12T20:36:34.321Z,46.33
2022-09-12T20:39:02.451Z,47.17
2022-09-12T20:41:32.662Z,45.72
2022-09-12T20:43:59.978Z,45.17
2022-09-12T20:46:28.622Z,44.60
2022-09-12T20:48:55.443Z,44.77
2022-09-12T20:51:22.981Z,44.53
2022-09-12T20:53:54.842Z,44.98
2022-09-12T20:56:23.503Z,45.06
2022-09-12T20:58:50.734Z,44.72
2022-09-12T21:01:17.573Z,45.24
2022-09-12T21:03:44.740Z,45.41
2022-09-12T21:06:13.456Z,46.86
2022-09-12T21:08:40.599Z,46.01
2022-09-12T21:11:07.398Z,45.91
2022-09-12T21:13:34.514Z,46.04
2022-09-12T21:16:05.861Z,46.57
2022-09-12T21:18:33.583Z,46.13
2022-09-12T21:21:00.352Z,46.31
2022-09-12T21:23:28.925Z,46.63
2022-09-12T21:25:56.098Z,46.69
2022-09-12T21:28:22.758Z,47.45
2022-09-12T21:30:49.931Z,46.90
2022-09-12T21:33:19.211Z,46.69
2022-09-12T21:35:47.303Z,47.00
2022-09-12T21:38:18.477Z,46.95
2022-09-12T21:40:46.097Z,47.45
2022-09-12T21:43:13.638Z,47.26
2022-09-12T21:45:40.705Z,46.60
2022-09-12T21:48:07.695Z,47.22
2022-09-12T21:50:34.850Z,47.10
2022-09-12T21:53:01.518Z,46.65
2022-09-12T21:55:28.144Z,46.46
2022-09-12T21:57:55.399Z,46.46
2022-09-12T22:00:22.935Z,46.59
2022-09-12T22:02:49.870Z,47.12
2022-09-12T22:05:17.163Z,47.39
2022-09-12T22:07:44.009Z,47.26
2022-09-12T22:10:10.846Z,47.59
2022-09-12T22:12:37.517Z,47.86
2022-09-12T22:15:22.797Z,47.96
2022-09-12T22:17:49.855Z,47.73
2022-09-12T22:20:16.619Z,47.46
2022-09-12T22:23:01.804Z,48.12
2022-09-12T22:25:28.527Z,47.72
2022-09-12T22:27:55.172Z,47.65
2022-09-12T22:30:22.719Z,48.41
2022-09-12T22:32:51.424Z,48.27
2022-09-12T22:35:19.101Z,48.01
2022-09-12T22:37:47.706Z,48.97
2022-09-12T22:40:15.531Z,48.06
2022-09-12T22:42:42.649Z,48.76
2022-09-12T22:45:09.834Z,48.35
2022-09-12T22:47:36.610Z,49.16
2022-09-12T22:50:03.779Z,47.88
2022-09-12T22:52:30.442Z,49.47
2022-09-12T22:54:57.208Z,48.73
2022-09-12T22:57:23.865Z,49.69
2022-09-12T22:59:50.454Z,49.12
2022-09-12T23:02:17.065Z,48.81
2022-09-12T23:04:43.854Z,49.76
2022-09-12T23:07:10.652Z,48.93
2022-09-12T23:09:37.376Z,48.26
2022-09-12T23:12:04.422Z,48.62
2022-09-12T23:14:31.427Z,48.87
2022-09-12T23:16:58.103Z,49.60
2022-09-12T23:19:24.721Z,48.55
2022-09-12T23:21:51.358Z,48.94
2022-09-12T23:24:18.060Z,49.25
2022-09-12T23:26:44.651Z,48.84
2022-09-12T23:29:11.420Z,48.42
2022-09-12T23:31:38.165Z,49.42
2022-09-12T23:34:06.084Z,49.41
2022-09-12T23:36:33.623Z,49.14
2022-09-12T23:39:00.321Z,48.55
2022-09-12T23:41:27.111Z,47.75
2022-09-12T23:43:53.808Z,47.78
2022-09-12T23:46:21.917Z,47.94
2022-09-12T23:48:49.277Z,47.10
2022-09-12T23:51:16.499Z,48.61
2022-09-12T23:53:43.228Z,47.92
2022-09-12T23:56:10.015Z,47.85
2022-09-12T23:58:37.028Z,47.78
